Time;durP1;ratioP1;P1;durP2;ratioP2;P2;SDS_P1;SDS_P2;PMS_P1;PMS_P2;Temp;Humidity;BMP_temperature;BMP_pressure;BME280_temperature;BME280_humidity;BME280_pressure;Samples;Min_cycle;Max_cycle;Signal;HPM_P1;HPM_P2
2022/03/24 00:00:23;;;;;;;19.40;7.63;;;3.40;80.10;;;;;;5025485;28;20205;-64
2022/03/24 00:02:49;;;;;;;24.40;9.63;;;3.40;80.40;;;;;;5025101;28;20222;-64
2022/03/24 00:05:15;;;;;;;18.60;8.37;;;3.30;80.60;;;;;;5025820;28;20413;-63
2022/03/24 00:07:41;;;;;;;17.10;7.87;;;3.20;80.60;;;;;;5025379;28;20536;-63
2022/03/24 00:10:07;;;;;;;15.57;7.83;;;3.20;81.40;;;;;;5025404;28;20520;-63
2022/03/24 00:12:34;;;;;;;14.87;7.13;;;3.20;81.50;;;;;;5025734;28;20205;-63
2022/03/24 00:15:04;;;;;;;18.20;7.80;;;3.10;81.70;;;;;;5023565;28;20503;-63
2022/03/24 00:17:31;;;;;;;17.10;7.93;;;3.10;81.60;;;;;;5028567;28;20425;-64
2022/03/24 00:19:57;;;;;;;13.00;7.37;;;3.10;82.20;;;;;;5022699;28;20895;-64
2022/03/24 00:22:23;;;;;;;16.10;6.90;;;3.10;82.00;;;;;;5028760;28;20530;-64
2022/03/24 00:24:48;;;;;;;18.80;8.60;;;3.10;82.10;;;;;;5029351;28;20200;-63
2022/03/24 00:27:15;;;;;;;15.67;8.77;;;3.10;81.80;;;;;;5029945;28;20232;-64
2022/03/24 00:29:41;;;;;;;20.37;9.27;;;3.00;82.00;;;;;;5025817;28;20277;-64
2022/03/24 00:32:08;;;;;;;19.57;7.83;;;3.10;82.30;;;;;;5027966;28;20475;-63
2022/03/24 00:34:33;;;;;;;19.83;7.73;;;3.10;81.80;;;;;;5029419;28;20500;-63
2022/03/24 00:36:59;;;;;;;17.27;7.80;;;2.90;81.70;;;;;;5029333;28;20460;-63
2022/03/24 00:39:25;;;;;;;20.73;8.60;;;2.90;82.50;;;;;;5028258;28;20182;-64
2022/03/24 00:41:51;;;;;;;22.43;10.17;;;2.80;82.70;;;;;;5029376;28;20810;-64
2022/03/24 00:44:19;;;;;;;14.30;7.80;;;2.70;83.20;;;;;;5029756;28;20189;-64
2022/03/24 00:46:45;;;;;;;19.23;8.47;;;2.70;83.50;;;;;;5029229;28;20629;-64
2022/03/24 00:49:11;;;;;;;21.80;9.30;;;2.70;83.20;;;;;;5028772;28;20452;-64
2022/03/24 00:51:36;;;;;;;17.67;8.10;;;2.70;82.90;;;;;;5029404;28;20560;-64
2022/03/24 00:54:03;;;;;;;19.50;8.03;;;2.60;82.80;;;;;;5028724;28;20191;-64
2022/03/24 00:56:28;;;;;;;22.07;8.43;;;2.60;83.10;;;;;;5029058;28;20233;-64
2022/03/24 00:58:55;;;;;;;23.50;9.43;;;2.50;83.40;;;;;;5028685;28;20451;-64
2022/03/24 01:01:21;;;;;;;16.03;8.90;;;2.60;84.20;;;;;;5028956;28;20175;-64
2022/03/24 01:03:48;;;;;;;17.13;8.47;;;2.60;84.00;;;;;;5027947;28;20965;-64
2022/03/24 01:06:16;;;;;;;19.43;8.47;;;2.60;84.00;;;;;;5028947;28;20420;-64
2022/03/24 01:08:43;;;;;;;20.03;7.77;;;2.60;84.30;;;;;;5028410;28;20511;-64
2022/03/24 01:11:09;;;;;;;19.50;8.43;;;2.50;84.20;;;;;;5028868;28;20413;-64
2022/03/24 01:13:36;;;;;;;20.23;9.07;;;2.50;84.50;;;;;;5028778;28;20433;-64
2022/03/24 01:16:04;;;;;;;27.43;8.60;;;2.60;84.40;;;;;;5028725;28;20178;-64
2022/03/24 01:18:34;;;;;;;18.37;8.90;;;2.50;84.30;;;;;;5028184;28;20914;-63
2022/03/24 01:21:03;;;;;;;22.20;9.47;;;2.50;84.50;;;;;;5028922;28;20708;-64
2022/03/24 01:23:30;;;;;;;20.40;8.90;;;2.50;84.50;;;;;;5028214;28;20441;-64
2022/03/24 01:25:57;;;;;;;19.67;8.93;;;2.50;84.80;;;;;;5027360;28;20417;-64
2022/03/24 01:28:23;;;;;;;22.80;7.90;;;2.50;85.00;;;;;;5028422;28;20425;-64
2022/03/24 01:30:49;;;;;;;22.87;9.70;;;2.50;84.60;;;;;;5028356;28;21003;-64
2022/03/24 01:33:15;;;;;;;18.00;8.80;;;2.50;84.90;;;;;;5028119;28;20237;-64
2022/03/24 01:35:41;;;;;;;20.40;8.67;;;2.50;84.80;;;;;;5028472;28;20217;-63
2022/03/24 01:38:06;;;;;;;18.73;8.57;;;2.40;84.60;;;;;;5027877;28;20508;-63
2022/03/24 01:40:32;;;;;;;17.03;8.53;;;2.40;84.40;;;;;;5027439;28;20643;-64
2022/03/24 01:42:58;;;;;;;18.33;9.03;;;2.30;85.00;;;;;;5028193;28;20182;-64
2022/03/24 01:45:23;;;;;;;22.20;10.20;;;2.30;85.10;;;;;;5028390;28;20191;-63
2022/03/24 01:47:50;;;;;;;20.33;9.20;;;2.20;85.40;;;;;;5027803;28;20189;-63
2022/03/24 01:50:16;;;;;;;22.60;8.20;;;2.20;86.70;;;;;;5027979;28;20706;-63
2022/03/24 01:52:43;;;;;;;25.20;9.53;;;2.20;86.50;;;;;;5027849;28;20602;-63
2022/03/24 01:55:11;;;;;;;17.90;8.80;;;2.20;85.40;;;;;;5026108;28;20179;-63
2022/03/24 01:57:39;;;;;;;19.70;9.00;;;2.20;86.40;;;;;;5027970;28;20780;-63
2022/03/24 02:00:06;;;;;;;19.70;9.03;;;2.10;85.70;;;;;;5027501;28;20421;-63
2022/03/24 02:02:33;;;;;;;17.70;8.53;;;2.00;86.10;;;;;;5026797;28;20425;-63
2022/03/24 02:04:58;;;;;;;19.97;8.03;;;1.90;86.30;;;;;;5025565;28;20436;-63
2022/03/24 02:07:24;;;;;;;17.17;8.17;;;1.90;86.40;;;;;;5027329;28;20421;-64
2022/03/24 02:09:50;;;;;;;25.40;8.97;;;1.90;87.30;;;;;;5027201;28;20186;-63
2022/03/24 02:12:15;;;;;;;24.20;11.40;;;2.00;87.30;;;;;;5027594;28;20251;-63
2022/03/24 02:14:42;;;;;;;19.50;8.43;;;2.00;86.80;;;;;;5027752;28;20218;-63
2022/03/24 02:17:08;;;;;;;21.03;9.50;;;2.00;87.00;;;;;;5027503;28;20175;-63
2022/03/24 02:19:36;;;;;;;17.80;8.70;;;1.90;86.60;;;;;;5026656;28;20460;-63
2022/03/24 02:22:12;;;;;;;17.43;8.20;;;2.00;87.60;;;;;;5027451;28;20475;-64
2022/03/24 02:24:37;;;;;;;18.20;7.60;;;2.00;87.20;;;;;;5026913;28;20429;-64
2022/03/24 02:27:03;;;;;;;16.40;8.10;;;1.90;86.90;;;;;;5027286;28;20417;-64
2022/03/24 02:29:29;;;;;;;38.47;10.70;;;1.80;87.20;;;;;;5024253;28;20501;-65
2022/03/24 02:31:55;;;;;;;20.30;8.60;;;1.80;87.70;;;;;;5023668;28;20567;-65
2022/03/24 02:34:38;;;;;;;22.30;9.50;;;1.90;87.70;;;;;;5025613;28;20262;-65
2022/03/24 02:37:07;;;;;;;25.20;9.00;;;1.90;86.80;;;;;;5027325;28;20194;-65
2022/03/24 02:39:38;;;;;;;25.33;9.73;;;1.90;87.20;;;;;;5025799;28;20447;-63
2022/03/24 02:42:05;;;;;;;20.47;8.80;;;1.80;87.40;;;;;;5027313;28;20607;-63
2022/03/24 02:44:31;;;;;;;18.73;9.43;;;1.80;87.50;;;;;;5026387;28;20425;-63
2022/03/24 02:47:00;;;;;;;24.97;9.67;;;1.80;87.50;;;;;;5027196;28;21044;-63
2022/03/24 02:49:30;;;;;;;27.03;9.10;;;1.80;87.10;;;;;;5026353;28;20826;-63
2022/03/24 02:52:01;;;;;;;28.87;9.30;;;1.70;87.20;;;;;;5026949;28;20460;-63
2022/03/24 02:54:28;;;;;;;20.13;8.20;;;1.60;87.50;;;;;;5026826;28;20778;-63
2022/03/24 02:56:54;;;;;;;16.90;9.20;;;1.50;87.70;;;;;;5027410;28;20413;-64
2022/03/24 02:59:20;;;;;;;23.47;10.57;;;1.50;87.70;;;;;;5026083;28;20421;-63
2022/03/24 03:02:00;;;;;;;17.10;8.47;;;1.50;88.20;;;;;;5026643;28;20516;-63
2022/03/24 03:04:27;;;;;;;17.70;9.53;;;1.60;88.70;;;;;;5025023;28;20643;-63
2022/03/24 03:06:54;;;;;;;21.17;9.77;;;1.50;88.00;;;;;;5026734;28;20417;-63
2022/03/24 03:09:21;;;;;;;24.27;9.73;;;1.50;87.90;;;;;;5025530;28;20425;-64
2022/03/24 03:11:48;;;;;;;19.33;9.67;;;1.50;87.90;;;;;;5026824;28;20513;-63
2022/03/24 03:14:17;;;;;;;20.00;8.63;;;1.50;88.40;;;;;;5026496;28;20727;-64
2022/03/24 03:16:44;;;;;;;26.27;8.63;;;1.50;88.30;;;;;;5026722;28;20421;-64
2022/03/24 03:19:11;;;;;;;21.73;9.30;;;1.60;88.00;;;;;;5025584;28;20409;-63
2022/03/24 03:21:37;;;;;;;22.77;10.37;;;1.50;88.10;;;;;;5026267;28;20425;-63
2022/03/24 03:24:04;;;;;;;20.13;9.43;;;1.40;87.90;;;;;;5025448;28;20948;-63
2022/03/24 03:26:30;;;;;;;15.00;7.87;;;1.30;88.20;;;;;;5026829;28;20807;-63
2022/03/24 03:28:56;;;;;;;28.07;10.13;;;1.30;88.90;;;;;;5025592;28;20436;-63
2022/03/24 03:31:22;;;;;;;22.50;8.57;;;1.30;89.00;;;;;;5026031;28;20417;-63
2022/03/24 03:33:50;;;;;;;23.83;10.70;;;1.30;89.30;;;;;;5025665;28;20257;-63
2022/03/24 03:36:17;;;;;;;22.57;9.70;;;1.20;89.00;;;;;;5026443;28;20679;-63
2022/03/24 03:38:43;;;;;;;19.63;8.73;;;1.30;89.00;;;;;;5025110;28;20899;-63
2022/03/24 03:41:08;;;;;;;18.07;8.40;;;1.30;89.00;;;;;;5025955;28;20445;-63
2022/03/24 03:43:34;;;;;;;19.33;9.73;;;1.30;88.90;;;;;;5025304;28;20228;-63
2022/03/24 03:46:01;;;;;;;20.40;9.10;;;1.20;88.40;;;;;;5025733;28;20200;-63
2022/03/24 03:48:26;;;;;;;25.80;9.70;;;1.10;88.30;;;;;;5024610;28;20186;-63
2022/03/24 03:50:52;;;;;;;34.67;10.43;;;1.00;88.90;;;;;;5025404;28;20475;-63
2022/03/24 03:53:17;;;;;;;22.43;8.80;;;1.00;89.50;;;;;;5024917;28;20612;-63
2022/03/24 03:55:43;;;;;;;18.63;9.53;;;1.00;89.50;;;;;;5025563;28;20178;-63
2022/03/24 03:58:11;;;;;;;22.60;9.97;;;1.00;89.70;;;;;;5024145;28;20257;-63
2022/03/24 04:00:58;;;;;;;16.43;7.90;;;1.00;89.40;;;;;;5025436;28;20425;-63
2022/03/24 04:03:25;;;;;;;20.30;9.50;;;1.00;89.10;;;;;;5025322;28;20464;-63
2022/03/24 04:05:53;;;;;;;20.90;8.93;;;1.00;89.70;;;;;;5025162;28;20414;-63
2022/03/24 04:08:20;;;;;;;21.07;8.40;;;1.00;89.60;;;;;;5023539;28;20421;-63
2022/03/24 04:10:46;;;;;;;22.73;9.87;;;1.00;89.50;;;;;;5025239;28;20486;-63
2022/03/24 04:13:12;;;;;;;18.87;9.03;;;1.10;89.50;;;;;;5025337;28;20523;-64
2022/03/24 04:15:38;;;;;;;22.17;9.50;;;1.00;89.50;;;;;;5025860;28;20967;-63
2022/03/24 04:18:06;;;;;;;22.90;10.00;;;1.00;89.60;;;;;;5025877;28;20174;-63
2022/03/24 04:20:31;;;;;;;16.20;8.27;;;1.00;89.40;;;;;;5025282;28;20808;-63
2022/03/24 04:23:01;;;;;;;16.63;7.77;;;1.00;90.00;;;;;;5025278;28;20535;-64
2022/03/24 04:25:28;;;;;;;18.43;8.93;;;1.10;89.70;;;;;;5025546;28;20517;-63
2022/03/24 04:27:53;;;;;;;24.80;9.77;;;1.10;89.70;;;;;;5025695;28;20425;-63
2022/03/24 04:30:19;;;;;;;21.10;10.30;;;1.00;89.80;;;;;;5023093;28;20949;-63
2022/03/24 04:32:45;;;;;;;30.23;12.57;;;1.00;90.00;;;;;;5024497;28;20682;-63
2022/03/24 04:35:14;;;;;;;30.33;11.93;;;0.90;89.90;;;;;;5024636;28;20425;-64
2022/03/24 04:37:40;;;;;;;31.47;12.20;;;0.80;90.00;;;;;;5025096;28;20584;-64
2022/03/24 04:40:07;;;;;;;26.23;10.53;;;0.80;90.00;;;;;;5024176;28;20784;-63
2022/03/24 04:42:33;;;;;;;24.67;10.27;;;0.70;90.30;;;;;;5025124;28;20421;-63
2022/03/24 04:44:59;;;;;;;20.70;9.93;;;0.70;90.40;;;;;;5025317;28;20756;-63
2022/03/24 04:47:26;;;;;;;23.83;9.47;;;0.80;90.50;;;;;;5025129;28;20961;-64
2022/03/24 04:49:52;;;;;;;21.03;9.80;;;0.80;90.40;;;;;;5024651;28;20182;-63
2022/03/24 04:52:19;;;;;;;20.40;11.43;;;0.80;90.40;;;;;;5025250;28;20464;-63
2022/03/24 04:54:45;;;;;;;25.63;11.77;;;0.80;90.30;;;;;;5024551;28;20596;-63
2022/03/24 04:57:10;;;;;;;21.80;9.33;;;0.80;90.50;;;;;;5025185;28;20507;-63
2022/03/24 04:59:36;;;;;;;22.77;10.53;;;0.80;90.50;;;;;;5024585;28;21032;-63
2022/03/24 05:02:02;;;;;;;23.93;10.40;;;0.80;90.70;;;;;;5027584;28;20906;-63
2022/03/24 05:04:27;;;;;;;20.60;10.70;;;0.70;90.70;;;;;;5028236;28;20190;-64
2022/03/24 05:06:54;;;;;;;19.17;9.00;;;0.60;90.50;;;;;;5027321;28;20182;-64
2022/03/24 05:09:19;;;;;;;26.27;11.73;;;0.50;90.80;;;;;;5027308;28;20206;-63
2022/03/24 05:11:45;;;;;;;30.30;11.03;;;0.50;91.20;;;;;;5028390;28;20519;-64
2022/03/24 05:14:12;;;;;;;24.43;11.57;;;0.50;91.60;;;;;;5028644;28;20190;-63
2022/03/24 05:16:38;;;;;;;24.07;12.50;;;0.50;91.50;;;;;;5028519;28;20448;-63
2022/03/24 05:19:04;;;;;;;31.47;12.10;;;0.60;91.50;;;;;;5027705;28;20777;-63
2022/03/24 05:21:31;;;;;;;23.90;10.23;;;0.60;91.30;;;;;;5027920;28;20175;-64
2022/03/24 05:23:57;;;;;;;20.20;8.90;;;0.60;91.50;;;;;;5027745;28;20413;-64
2022/03/24 05:26:24;;;;;;;34.30;13.23;;;0.60;91.20;;;;;;5028469;28;20417;-64
2022/03/24 05:28:51;;;;;;;26.83;11.70;;;0.60;91.30;;;;;;5027470;28;20823;-63
2022/03/24 05:31:17;;;;;;;28.43;11.37;;;0.60;91.20;;;;;;5028634;28;20451;-63
2022/03/24 05:33:43;;;;;;;28.53;11.77;;;0.70;91.20;;;;;;5028013;28;20424;-64
2022/03/24 05:36:10;;;;;;;23.70;10.37;;;0.70;90.90;;;;;;5027936;28;20429;-63
2022/03/24 05:38:36;;;;;;;24.23;10.43;;;0.70;90.70;;;;;;5027304;28;20425;-63
2022/03/24 05:41:03;;;;;;;17.40;8.83;;;0.60;90.90;;;;;;5028468;28;20532;-64
2022/03/24 05:43:30;;;;;;;31.20;10.87;;;0.60;90.70;;;;;;5025978;28;20919;-64
2022/03/24 05:45:55;;;;;;;19.90;8.60;;;0.60;91.10;;;;;;5027979;28;20428;-63
2022/03/24 05:48:21;;;;;;;25.93;11.30;;;0.70;91.00;;;;;;5026900;28;20889;-64
2022/03/24 05:50:47;;;;;;;23.10;10.30;;;0.70;90.70;;;;;;5028245;28;20190;-64
2022/03/24 05:53:13;;;;;;;29.23;10.77;;;0.70;90.80;;;;;;5027002;28;20275;-64
2022/03/24 05:55:40;;;;;;;21.10;10.17;;;0.60;90.90;;;;;;5027792;28;20654;-64
2022/03/24 05:58:06;;;;;;;25.70;11.07;;;0.70;91.10;;;;;;5027686;28;20519;-64
2022/03/24 06:00:34;;;;;;;27.20;12.63;;;0.70;91.00;;;;;;5027728;28;20429;-64
2022/03/24 06:03:00;;;;;;;27.10;11.97;;;0.70;90.90;;;;;;5028020;28;20435;-64
2022/03/24 06:05:26;;;;;;;29.60;12.73;;;0.70;91.00;;;;;;5027787;28;20790;-64
2022/03/24 06:07:52;;;;;;;29.00;11.17;;;0.70;91.10;;;;;;5025843;28;20452;-64
2022/03/24 06:10:18;;;;;;;27.53;11.17;;;0.70;91.20;;;;;;5027227;28;20186;-64
2022/03/24 06:12:46;;;;;;;23.20;9.20;;;0.80;91.10;;;;;;5026866;28;20256;-65
2022/03/24 06:15:12;;;;;;;20.80;10.07;;;0.90;91.10;;;;;;5027415;28;20444;-64
2022/03/24 06:17:38;;;;;;;21.30;8.77;;;1.00;90.90;;;;;;5027193;28;20536;-64
2022/03/24 06:20:04;;;;;;;21.10;8.60;;;1.00;91.00;;;;;;5026636;28;20592;-64
2022/03/24 06:22:31;;;;;;;25.53;10.27;;;1.10;91.00;;;;;;5026595;28;20183;-64
2022/03/24 06:24:57;;;;;;;23.77;10.50;;;1.20;91.00;;;;;;5027219;28;20789;-64
2022/03/24 06:27:22;;;;;;;26.17;10.93;;;1.20;91.10;;;;;;5027461;28;20421;-64
2022/03/24 06:29:48;;;;;;;25.77;11.53;;;1.30;91.40;;;;;;5026469;28;20241;-64
2022/03/24 06:32:15;;;;;;;24.23;10.67;;;1.50;91.50;;;;;;5023083;28;20580;-65
2022/03/24 06:34:40;;;;;;;23.57;9.87;;;1.70;91.30;;;;;;5024957;28;20236;-64
2022/03/24 06:37:07;;;;;;;24.33;11.97;;;1.80;91.20;;;;;;5027123;28;20912;-65
2022/03/24 06:39:32;;;;;;;26.57;11.23;;;2.00;91.20;;;;;;5025771;28;20550;-64
2022/03/24 06:41:58;;;;;;;23.10;9.17;;;2.10;90.90;;;;;;5026540;28;20425;-65
2022/03/24 06:44:24;;;;;;;27.80;10.53;;;2.30;90.70;;;;;;5026860;28;20264;-65
2022/03/24 06:46:49;;;;;;;25.40;9.93;;;2.40;90.80;;;;;;5027248;28;20197;-65
2022/03/24 06:49:15;;;;;;;38.97;12.03;;;2.60;90.60;;;;;;5025955;28;20710;-65
2022/03/24 06:51:41;;;;;;;18.90;9.50;;;2.80;90.20;;;;;;5027143;28;20268;-65
2022/03/24 06:54:07;;;;;;;16.10;9.30;;;3.00;89.70;;;;;;5026152;28;20183;-64
2022/03/24 06:56:33;;;;;;;23.30;10.20;;;3.30;89.10;;;;;;5026632;28;20190;-63
2022/03/24 06:58:58;;;;;;;20.30;9.33;;;3.40;88.10;;;;;;5026112;28;20186;-63
2022/03/24 07:01:24;;;;;;;22.50;10.37;;;3.60;87.00;;;;;;5026712;28;20495;-64
2022/03/24 07:03:50;;;;;;;19.90;9.50;;;3.70;86.70;;;;;;5026330;28;20190;-64
2022/03/24 07:06:16;;;;;;;24.77;11.20;;;3.90;86.70;;;;;;5025614;28;20666;-64
2022/03/24 07:08:41;;;;;;;23.73;9.93;;;4.20;86.90;;;;;;5018056;28;20266;-63
2022/03/24 07:11:08;;;;;;;23.93;10.50;;;4.20;85.60;;;;;;5019268;28;20174;-65
2022/03/24 07:13:34;;;;;;;18.87;10.03;;;4.30;86.10;;;;;;5022724;28;20284;-65
2022/03/24 07:16:00;;;;;;;16.63;8.60;;;4.60;85.30;;;;;;5020458;28;20516;-65
2022/03/24 07:18:25;;;;;;;23.50;10.03;;;4.80;85.30;;;;;;5025036;28;20289;-64
2022/03/24 07:20:51;;;;;;;25.00;10.33;;;5.20;84.80;;;;;;5025859;28;20413;-66
2022/03/24 07:23:17;;;;;;;20.50;9.40;;;5.60;83.80;;;;;;5023770;28;20670;-66
2022/03/24 07:25:43;;;;;;;23.90;9.57;;;6.10;83.70;;;;;;5025601;28;20193;-66
2022/03/24 07:28:12;;;;;;;29.03;9.83;;;6.70;81.50;;;;;;5022745;28;20420;-66
2022/03/24 07:30:39;;;;;;;19.27;8.93;;;7.70;79.80;;;;;;5024698;28;20767;-66
2022/03/24 07:33:05;;;;;;;22.90;11.53;;;8.60;77.20;;;;;;5024234;28;20481;-66
2022/03/24 07:35:33;;;;;;;21.53;10.30;;;9.50;74.90;;;;;;5025303;28;20421;-67
2022/03/24 07:38:00;;;;;;;23.57;9.23;;;10.60;69.80;;;;;;5025196;28;20182;-65
2022/03/24 07:40:26;;;;;;;23.93;9.43;;;11.60;69.20;;;;;;5025217;28;20449;-67
2022/03/24 07:42:53;;;;;;;24.30;10.97;;;12.70;65.00;;;;;;5025787;28;20429;-67
2022/03/24 07:45:21;;;;;;;26.73;9.23;;;13.50;63.00;;;;;;5026987;28;20272;-67
2022/03/24 07:48:07;;;;;;;21.60;11.10;;;14.30;59.70;;;;;;5025170;28;21016;-67
2022/03/24 07:50:33;;;;;;;21.07;9.73;;;15.60;58.00;;;;;;5024998;28;20595;-68
2022/03/24 07:53:14;;;;;;;19.20;9.33;;;16.40;56.10;;;;;;5024890;28;20522;-68
2022/03/24 07:55:45;;;;;;;22.00;8.97;;;16.40;53.20;;;;;;5020957;28;20560;-68
2022/03/24 07:58:12;;;;;;;18.30;8.53;;;16.70;54.80;;;;;;5024002;28;20428;-68
2022/03/24 08:00:39;;;;;;;16.90;8.60;;;17.00;53.70;;;;;;5023390;28;20428;-68
2022/03/24 08:03:10;;;;;;;20.20;9.70;;;16.80;53.20;;;;;;5022813;28;20434;-66
2022/03/24 08:05:36;;;;;;;42.13;10.87;;;17.20;52.80;;;;;;5023718;28;20447;-66
2022/03/24 08:08:04;;;;;;;19.53;9.57;;;17.30;52.00;;;;;;5022453;28;20412;-66
2022/03/24 08:10:29;;;;;;;20.63;8.97;;;17.50;51.20;;;;;;5021387;28;20265;-67
2022/03/24 08:12:55;;;;;;;19.83;9.10;;;17.40;50.40;;;;;;5022986;28;20486;-67
2022/03/24 08:15:21;;;;;;;17.13;9.37;;;17.40;48.80;;;;;;5023109;28;20188;-66
2022/03/24 08:17:46;;;;;;;16.10;8.70;;;17.50;48.60;;;;;;5022142;28;20206;-67
2022/03/24 08:20:12;;;;;;;21.73;9.43;;;17.40;49.50;;;;;;5023193;28;20185;-68
2022/03/24 08:22:38;;;;;;;22.90;9.07;;;17.30;49.20;;;;;;5022501;28;20189;-68
2022/03/24 08:25:09;;;;;;;18.70;8.83;;;17.40;49.20;;;;;;5023993;28;20625;-68
2022/03/24 08:27:35;;;;;;;24.83;10.10;;;17.40;49.10;;;;;;5024083;28;20413;-68
2022/03/24 08:30:03;;;;;;;19.10;8.80;;;17.80;49.10;;;;;;5023496;28;20420;-67
2022/03/24 08:32:28;;;;;;;19.87;9.27;;;18.40;48.70;;;;;;5018437;28;20467;-67
2022/03/24 08:34:54;;;;;;;19.03;9.90;;;18.50;46.80;;;;;;5021638;28;20763;-67
2022/03/24 08:37:19;;;;;;;37.50;13.73;;;18.30;47.10;;;;;;5025279;28;20521;-66
2022/03/24 08:39:45;;;;;;;25.20;9.00;;;18.20;48.60;;;;;;5026367;28;20197;-68
2022/03/24 08:42:11;;;;;;;21.87;9.60;;;18.20;50.60;;;;;;5026460;28;20551;-68
2022/03/24 08:44:36;;;;;;;16.93;9.10;;;18.00;51.70;;;;;;5027334;28;20193;-68
2022/03/24 08:47:02;;;;;;;16.37;8.33;;;17.90;49.60;;;;;;5027151;28;20760;-68
2022/03/24 08:49:28;;;;;;;20.43;8.83;;;18.00;48.20;;;;;;5027653;28;20268;-68
2022/03/24 08:51:54;;;;;;;27.10;8.47;;;18.30;47.10;;;;;;5028468;28;20671;-67
2022/03/24 08:54:19;;;;;;;22.83;10.93;;;18.20;46.00;;;;;;5025193;28;20181;-67
2022/03/24 08:56:45;;;;;;;17.93;8.10;;;18.40;45.70;;;;;;5027643;28;20189;-67
2022/03/24 08:59:11;;;;;;;26.43;8.80;;;18.50;45.20;;;;;;5027132;28;20182;-67
2022/03/24 09:01:38;;;;;;;19.20;8.30;;;18.20;46.10;;;;;;5026449;28;20674;-67
2022/03/24 09:04:03;;;;;;;26.37;8.07;;;18.10;44.50;;;;;;5026455;28;20185;-67
2022/03/24 09:06:29;;;;;;;18.90;7.50;;;18.40;44.40;;;;;;5025134;28;20443;-67
2022/03/24 09:08:55;;;;;;;16.20;8.77;;;18.80;42.60;;;;;;5026946;28;20693;-68
2022/03/24 09:11:21;;;;;;;16.50;8.80;;;18.90;42.80;;;;;;5026975;28;20185;-66
2022/03/24 09:13:46;;;;;;;18.00;9.60;;;19.30;41.60;;;;;;5026921;28;20468;-68
2022/03/24 09:16:12;;;;;;;23.70;9.63;;;18.90;42.20;;;;;;5026750;28;20174;-68
2022/03/24 09:18:38;;;;;;;21.30;8.10;;;18.60;42.40;;;;;;5026857;28;20178;-67
2022/03/24 09:21:04;;;;;;;16.10;7.80;;;18.30;43.00;;;;;;5027081;28;20355;-67
2022/03/24 09:23:29;;;;;;;17.60;8.67;;;17.90;44.70;;;;;;5024808;28;20189;-67
2022/03/24 09:25:56;;;;;;;15.37;8.40;;;18.30;44.30;;;;;;5027999;28;20489;-67
2022/03/24 09:28:24;;;;;;;16.30;8.20;;;18.50;46.30;;;;;;5027271;28;20605;-68
2022/03/24 09:30:50;;;;;;;25.10;9.77;;;18.50;44.70;;;;;;5027880;28;20959;-68
2022/03/24 09:33:18;;;;;;;16.53;8.13;;;18.60;44.20;;;;;;5028023;28;20468;-68
2022/03/24 09:35:43;;;;;;;16.63;8.23;;;19.00;42.70;;;;;;5027301;28;20256;-68
2022/03/24 09:38:09;;;;;;;14.20;8.30;;;19.10;41.40;;;;;;5026960;28;20450;-68
2022/03/24 09:40:35;;;;;;;20.20;8.80;;;19.10;41.70;;;;;;5026582;28;20356;-68
2022/03/24 09:43:02;;;;;;;17.53;8.83;;;18.90;42.20;;;;;;5027550;28;20490;-68
2022/03/24 09:45:28;;;;;;;20.03;8.57;;;18.70;43.40;;;;;;5027650;28;20524;-68
2022/03/24 09:47:54;;;;;;;14.63;9.60;;;18.60;42.10;;;;;;5026739;28;20437;-68
2022/03/24 09:50:22;;;;;;;19.37;9.17;;;18.60;41.10;;;;;;5026617;28;20502;-67
2022/03/24 09:52:49;;;;;;;21.80;9.30;;;18.50;40.80;;;;;;5024559;28;20288;-68
2022/03/24 09:55:16;;;;;;;14.70;7.60;;;18.30;41.60;;;;;;5027580;28;20425;-67
2022/03/24 09:57:43;;;;;;;25.10;8.37;;;18.20;41.90;;;;;;5027834;28;20448;-68
2022/03/24 10:00:10;;;;;;;21.83;8.47;;;17.90;42.10;;;;;;5026762;28;20433;-67
2022/03/24 10:02:36;;;;;;;14.90;8.37;;;17.30;43.80;;;;;;5027460;28;20460;-67
2022/03/24 10:05:02;;;;;;;12.60;7.47;;;17.20;44.50;;;;;;5027389;28;20445;-67
2022/03/24 10:07:33;;;;;;;14.90;7.57;;;17.10;45.00;;;;;;5027248;28;20182;-67
2022/03/24 10:10:01;;;;;;;23.30;10.60;;;17.10;47.80;;;;;;5026918;28;20944;-68
2022/03/24 10:12:33;;;;;;;15.57;8.33;;;17.20;45.40;;;;;;5026148;28;20524;-68
2022/03/24 10:15:12;;;;;;;16.90;7.60;;;17.20;43.40;;;;;;5026537;28;20428;-68
2022/03/24 10:17:40;;;;;;;20.73;7.80;;;17.30;43.60;;;;;;5026987;28;20479;-68
2022/03/24 10:20:08;;;;;;;12.53;7.07;;;17.30;43.30;;;;;;5025495;28;20552;-68
2022/03/24 10:22:35;;;;;;;14.57;7.60;;;17.30;44.40;;;;;;5026910;28;20444;-67
2022/03/24 10:25:05;;;;;;;14.83;7.23;;;17.10;45.60;;;;;;5026991;28;20523;-67
2022/03/24 10:27:31;;;;;;;15.20;7.93;;;17.00;44.70;;;;;;5025897;28;20464;-66
2022/03/24 10:29:59;;;;;;;19.33;8.67;;;17.10;45.40;;;;;;5026319;28;20502;-67
2022/03/24 10:32:31;;;;;;;15.97;8.90;;;17.20;44.00;;;;;;5024612;28;20658;-68
2022/03/24 10:35:12;;;;;;;20.53;8.23;;;17.40;43.50;;;;;;5023812;28;20448;-68
2022/03/24 10:37:38;;;;;;;15.20;8.40;;;17.30;45.40;;;;;;5026200;28;20413;-67
2022/03/24 10:40:09;;;;;;;16.93;8.10;;;17.50;43.40;;;;;;5026430;28;20436;-67
2022/03/24 10:42:40;;;;;;;17.10;8.63;;;17.40;44.40;;;;;;5026525;28;20417;-67
2022/03/24 10:45:11;;;;;;;19.80;9.70;;;17.50;44.10;;;;;;5026681;28;20428;-68
2022/03/24 10:47:39;;;;;;;21.53;7.93;;;17.40;45.20;;;;;;5026684;28;20425;-68
2022/03/24 10:50:24;;;;;;;16.70;7.50;;;17.50;44.70;;;;;;5025918;28;20765;-68
2022/03/24 10:52:53;;;;;;;21.63;9.20;;;17.70;44.20;;;;;;5025809;28;20464;-68
2022/03/24 10:55:46;;;;;;;22.83;10.03;;;17.90;43.80;;;;;;5027330;28;20433;-67
2022/03/24 10:58:39;;;;;;;14.33;8.60;;;17.60;43.70;;;;;;5024188;28;20471;-67
2022/03/24 11:01:07;;;;;;;19.27;8.93;;;17.90;42.90;;;;;;5026559;28;21292;-67
2022/03/24 11:03:34;;;;;;;19.03;7.90;;;17.60;43.60;;;;;;5026942;28;20483;-67
2022/03/24 11:06:05;;;;;;;17.50;7.73;;;17.70;43.90;;;;;;5025980;28;20421;-67
2022/03/24 11:08:31;;;;;;;18.30;8.30;;;17.60;42.90;;;;;;5022209;28;20420;-66
2022/03/24 11:10:57;;;;;;;17.10;8.80;;;17.60;43.70;;;;;;5025171;28;20440;-66
2022/03/24 11:13:38;;;;;;;15.20;7.27;;;17.80;41.70;;;;;;5026243;28;20218;-67
2022/03/24 11:16:05;;;;;;;18.37;7.70;;;18.00;41.60;;;;;;5025433;28;20178;-66
2022/03/24 11:18:31;;;;;;;14.80;8.30;;;18.00;42.70;;;;;;5023122;28;20433;-67
2022/03/24 11:21:04;;;;;;;13.83;6.07;;;18.30;40.80;;;;;;5021162;28;20437;-67
2022/03/24 11:23:35;;;;;;;14.00;7.40;;;18.10;40.60;;;;;;5025421;28;20461;-68
2022/03/24 11:26:03;;;;;;;19.70;7.40;;;18.20;41.70;;;;;;5026616;28;20436;-67
2022/03/24 11:28:29;;;;;;;18.20;7.73;;;18.30;41.10;;;;;;5026346;28;20977;-67
2022/03/24 11:30:55;;;;;;;17.37;8.27;;;18.20;40.30;;;;;;5026035;28;20478;-66
2022/03/24 11:33:21;;;;;;;17.83;7.50;;;18.20;43.00;;;;;;5024804;28;20480;-67
2022/03/24 11:35:49;;;;;;;13.67;7.10;;;18.20;41.10;;;;;;5025384;28;20269;-66
2022/03/24 11:38:15;;;;;;;16.83;7.40;;;18.50;41.30;;;;;;5025182;28;20198;-68
2022/03/24 11:40:41;;;;;;;13.33;7.40;;;18.40;39.60;;;;;;5025346;28;20468;-67
2022/03/24 11:43:15;;;;;;;16.30;8.03;;;18.40;39.40;;;;;;5025955;28;20979;-67
2022/03/24 11:45:52;;;;;;;13.60;7.17;;;18.20;42.00;;;;;;5025956;28;20926;-66
2022/03/24 11:48:30;;;;;;;17.70;8.93;;;18.00;44.50;;;;;;5025248;28;20703;-68
2022/03/24 11:50:56;;;;;;;15.03;7.37;;;18.10;43.40;;;;;;5025217;28;20440;-67
2022/03/24 11:53:28;;;;;;;14.27;7.33;;;18.50;41.00;;;;;;5022517;28;20476;-65
2022/03/24 11:55:59;;;;;;;19.93;9.53;;;18.50;41.90;;;;;;5025681;28;20533;-67
2022/03/24 11:58:28;;;;;;;20.17;7.97;;;18.80;40.30;;;;;;5025506;28;20444;-66
2022/03/24 12:00:54;;;;;;;14.97;8.20;;;18.70;41.70;;;;;;5025594;28;20433;-66
2022/03/24 12:03:40;;;;;;;18.23;8.93;;;18.70;42.80;;;;;;5025068;28;20753;-66
2022/03/24 12:06:06;;;;;;;28.73;9.43;;;18.90;40.50;;;;;;5025746;28;21296;-66
2022/03/24 12:08:43;;;;;;;22.70;9.63;;;19.20;41.40;;;;;;5024759;28;20758;-67
2022/03/24 12:11:30;;;;;;;16.67;8.90;;;19.00;41.00;;;;;;5028201;28;20220;-67
2022/03/24 12:14:00;;;;;;;14.93;6.73;;;19.20;40.80;;;;;;5026466;28;20475;-66
2022/03/24 12:16:27;;;;;;;18.53;7.90;;;19.40;39.80;;;;;;5028883;28;20849;-66
2022/03/24 12:18:53;;;;;;;22.07;9.93;;;19.50;38.90;;;;;;5029385;28;20952;-66
2022/03/24 12:21:30;;;;;;;19.10;9.67;;;19.50;39.70;;;;;;5029181;28;20445;-66
2022/03/24 12:24:18;;;;;;;25.63;8.10;;;19.30;41.60;;;;;;5025915;28;20602;-66
2022/03/24 12:26:56;;;;;;;17.27;7.30;;;18.80;38.50;;;;;;5029470;28;20452;-66
2022/03/24 12:29:24;;;;;;;21.27;7.13;;;18.70;40.80;;;;;;5028374;28;20474;-66
2022/03/24 12:32:01;;;;;;;19.00;8.73;;;18.90;38.10;;;;;;5028945;28;20793;-66
2022/03/24 12:34:44;;;;;;;22.37;9.97;;;19.10;39.50;;;;;;5023374;28;20437;-66
2022/03/24 12:37:32;;;;;;;18.57;8.20;;;19.00;40.30;;;;;;5025886;28;20524;-65
2022/03/24 12:40:05;;;;;;;22.80;9.80;;;19.00;37.50;;;;;;5027023;28;20469;-66
2022/03/24 12:42:52;;;;;;;16.37;8.30;;;19.10;37.50;;;;;;5023710;28;21057;-66